Time;durP1;ratioP1;P1;durP2;ratioP2;P2;SDS_P1;SDS_P2;PMS_P1;PMS_P2;Temp;Humidity;BMP_temperature;BMP_pressure;BME280_temperature;BME280_humidity;BME280_pressure;Samples;Min_cycle;Max_cycle;Signal;HPM_P1;HPM_P2
2021/01/18 00:00:28;;;;;;;20.50;10.60;;;9.90;64.10;;;;;;5095851;28;20460;-49
2021/01/18 00:02:55;;;;;;;20.87;10.90;;;9.90;64.10;;;;;;5096069;28;20472;-47
2021/01/18 00:05:22;;;;;;;16.43;9.90;;;10.00;63.00;;;;;;5075074;28;20579;-48
2021/01/18 00:07:49;;;;;;;18.00;9.70;;;10.00;62.90;;;;;;5089482;28;20433;-46
2021/01/18 00:10:18;;;;;;;16.47;10.20;;;9.90;64.20;;;;;;5095698;28;20444;-52
2021/01/18 00:12:46;;;;;;;18.23;9.27;;;9.90;64.30;;;;;;5095242;28;20429;-51
2021/01/18 00:15:14;;;;;;;17.53;10.40;;;9.90;64.30;;;;;;5095271;28;20475;-49
2021/01/18 00:17:41;;;;;;;18.40;10.17;;;10.00;64.00;;;;;;5095521;28;20501;-50
2021/01/18 00:20:10;;;;;;;18.17;9.80;;;10.00;63.20;;;;;;5095132;28;20433;-48
2021/01/18 00:22:38;;;;;;;16.30;9.70;;;10.00;63.20;;;;;;5078848;28;20469;-49
2021/01/18 00:25:09;;;;;;;17.00;10.07;;;10.00;63.30;;;;;;5085280;28;20509;-49
2021/01/18 00:27:35;;;;;;;16.10;8.90;;;10.00;63.20;;;;;;5082198;28;20457;-49
2021/01/18 00:30:06;;;;;;;14.40;8.90;;;10.00;63.40;;;;;;5075410;28;20430;-50
2021/01/18 00:32:34;;;;;;;17.63;10.30;;;9.90;64.60;;;;;;5088830;28;20457;-47
2021/01/18 00:35:01;;;;;;;13.40;8.40;;;10.00;63.50;;;;;;5094462;28;20452;-50
2021/01/18 00:37:28;;;;;;;17.20;10.07;;;10.00;63.30;;;;;;5095382;28;20448;-49
2021/01/18 00:39:55;;;;;;;19.67;9.33;;;10.10;63.40;;;;;;5087843;28;20494;-54
2021/01/18 00:42:22;;;;;;;16.57;9.20;;;10.10;63.30;;;;;;5085982;28;20512;-54
2021/01/18 00:44:49;;;;;;;17.13;9.10;;;10.10;63.40;;;;;;5083175;28;20429;-53
2021/01/18 00:47:15;;;;;;;13.07;8.13;;;10.00;63.40;;;;;;5084620;28;20434;-53
2021/01/18 00:49:44;;;;;;;18.70;9.73;;;10.10;63.40;;;;;;5082607;28;20450;-53
2021/01/18 00:52:12;;;;;;;13.20;7.87;;;10.10;63.30;;;;;;5085092;28;20528;-49
2021/01/18 00:54:40;;;;;;;16.73;9.30;;;10.10;63.70;;;;;;5081473;28;20465;-52
2021/01/18 00:57:07;;;;;;;17.00;9.30;;;10.10;63.40;;;;;;5082645;28;20614;-51
2021/01/18 00:59:34;;;;;;;18.73;9.50;;;10.10;63.30;;;;;;5082750;28;20464;-53
2021/01/18 01:02:00;;;;;;;16.90;8.93;;;10.10;63.40;;;;;;5083240;28;20536;-51
2021/01/18 01:04:27;;;;;;;16.27;8.50;;;10.10;63.30;;;;;;5081639;28;20430;-52
2021/01/18 01:06:55;;;;;;;15.87;9.70;;;10.10;63.70;;;;;;5085191;28;20533;-52
2021/01/18 01:09:22;;;;;;;15.37;9.43;;;10.10;64.30;;;;;;5082831;28;20460;-54
2021/01/18 01:11:49;;;;;;;15.23;8.90;;;10.10;63.60;;;;;;5081703;28;20489;-48
2021/01/18 01:14:16;;;;;;;15.20;8.87;;;10.10;63.80;;;;;;5087128;28;20460;-49
2021/01/18 01:16:43;;;;;;;19.23;9.37;;;10.10;63.60;;;;;;5082218;28;20480;-49
2021/01/18 01:19:10;;;;;;;16.33;8.73;;;10.10;63.40;;;;;;5084029;28;20449;-54
2021/01/18 01:21:37;;;;;;;11.47;7.57;;;10.10;63.50;;;;;;5082964;28;20501;-50
2021/01/18 01:24:06;;;;;;;12.50;7.63;;;10.20;63.50;;;;;;5081920;28;20429;-51
2021/01/18 01:26:33;;;;;;;14.37;7.93;;;10.10;63.70;;;;;;5083636;28;20448;-54
2021/01/18 01:29:00;;;;;;;15.07;8.50;;;10.10;63.90;;;;;;5082966;28;20494;-52
2021/01/18 01:31:27;;;;;;;15.47;8.50;;;10.20;63.80;;;;;;5078795;28;20420;-50
2021/01/18 01:33:54;;;;;;;11.43;7.80;;;10.20;63.70;;;;;;5073896;28;20455;-48
2021/01/18 01:36:21;;;;;;;11.87;7.27;;;10.10;64.50;;;;;;5073514;28;20430;-50
2021/01/18 01:38:48;;;;;;;14.83;7.93;;;10.10;63.90;;;;;;5073853;28;20452;-51
2021/01/18 01:41:15;;;;;;;16.70;8.93;;;10.20;63.80;;;;;;5082920;28;20559;-54
2021/01/18 01:43:42;;;;;;;11.10;7.43;;;10.20;63.70;;;;;;5083562;28;20437;-54
2021/01/18 01:46:09;;;;;;;14.70;8.30;;;10.20;63.80;;;;;;5082358;28;20545;-48
2021/01/18 01:48:36;;;;;;;11.73;7.83;;;10.20;63.70;;;;;;5081600;28;20425;-53
2021/01/18 01:51:03;;;;;;;11.50;7.50;;;10.20;63.70;;;;;;5081308;28;20494;-55
2021/01/18 01:53:31;;;;;;;11.50;7.10;;;10.10;64.10;;;;;;5085247;28;20433;-55
2021/01/18 01:55:58;;;;;;;14.50;7.20;;;10.10;64.00;;;;;;5087235;28;20437;-53
2021/01/18 01:58:26;;;;;;;11.90;8.03;;;10.10;63.90;;;;;;5087797;28;20496;-53
2021/01/18 02:00:53;;;;;;;14.90;8.07;;;10.10;64.00;;;;;;5083445;28;20529;-49
2021/01/18 02:03:23;;;;;;;10.20;6.97;;;10.00;64.10;;;;;;5077508;28;20434;-53
2021/01/18 02:05:53;;;;;;;13.00;7.30;;;10.10;64.00;;;;;;5089369;28;20455;-53
2021/01/18 02:08:20;;;;;;;12.27;7.80;;;10.20;63.90;;;;;;5104748;28;20432;-51
2021/01/18 02:10:47;;;;;;;12.40;7.27;;;10.20;63.80;;;;;;5097290;28;20516;-52
2021/01/18 02:13:23;;;;;;;11.53;7.50;;;10.10;64.10;;;;;;5098223;28;20451;-52
2021/01/18 02:15:57;;;;;;;11.80;6.97;;;10.10;64.70;;;;;;5089892;28;20478;-51
2021/01/18 02:18:29;;;;;;;12.80;7.03;;;10.10;64.20;;;;;;5097182;28;20476;-52
2021/01/18 02:21:26;;;;;;;13.47;7.40;;;10.20;64.00;;;;;;5096824;28;20433;-52
2021/01/18 02:24:20;;;;;;;9.73;6.90;;;10.20;63.80;;;;;;5097282;28;20472;-51
2021/01/18 02:27:03;;;;;;;11.70;7.37;;;10.10;63.90;;;;;;5115824;28;20436;-54
2021/01/18 02:29:37;;;;;;;11.07;7.17;;;10.20;64.00;;;;;;5117530;27;20526;-52
2021/01/18 02:32:19;;;;;;;13.17;6.93;;;10.30;63.60;;;;;;5112845;28;20425;-54
2021/01/18 02:35:12;;;;;;;11.63;6.90;;;10.20;63.80;;;;;;5107576;28;20439;-52
2021/01/18 02:38:05;;;;;;;11.13;7.40;;;10.20;63.90;;;;;;5117459;27;20530;-52
2021/01/18 02:40:36;;;;;;;13.03;7.60;;;10.30;63.80;;;;;;5117388;27;20523;-49
2021/01/18 02:43:04;;;;;;;12.03;6.97;;;10.30;63.90;;;;;;5116687;28;20516;-51
2021/01/18 02:45:31;;;;;;;10.87;6.90;;;10.30;63.90;;;;;;5116490;28;20439;-50
2021/01/18 02:47:58;;;;;;;13.27;6.73;;;10.30;63.80;;;;;;5116845;28;20514;-51
2021/01/18 02:50:25;;;;;;;13.90;6.37;;;10.30;63.90;;;;;;5117215;28;20468;-52
2021/01/18 02:52:52;;;;;;;12.40;6.60;;;10.30;64.00;;;;;;5087449;28;20532;-52
2021/01/18 02:55:20;;;;;;;10.10;6.90;;;10.30;64.00;;;;;;5075428;28;20456;-49
2021/01/18 02:57:48;;;;;;;8.90;6.43;;;10.30;63.90;;;;;;5076515;28;20495;-52
2021/01/18 03:00:23;;;;;;;10.20;7.07;;;10.30;63.90;;;;;;5081007;28;20450;-50
2021/01/18 03:02:54;;;;;;;10.53;6.60;;;10.30;63.80;;;;;;5116903;28;20499;-50
2021/01/18 03:05:29;;;;;;;6.57;5.10;;;10.30;63.80;;;;;;5116179;28;20460;-53
2021/01/18 03:08:01;;;;;;;11.30;6.07;;;10.30;63.90;;;;;;5116820;28;20483;-54
2021/01/18 03:10:33;;;;;;;12.17;7.13;;;10.30;64.00;;;;;;5088458;28;20499;-53
2021/01/18 03:13:01;;;;;;;9.80;6.20;;;10.30;63.90;;;;;;5070815;28;20485;-53
2021/01/18 03:15:28;;;;;;;8.87;5.90;;;10.30;63.90;;;;;;5075343;28;20556;-53
2021/01/18 03:17:55;;;;;;;12.47;7.10;;;10.30;63.90;;;;;;5076100;28;20454;-48
2021/01/18 03:20:22;;;;;;;12.87;6.77;;;10.40;63.80;;;;;;5075807;28;20437;-52
2021/01/18 03:22:49;;;;;;;9.20;6.23;;;10.30;63.80;;;;;;5075711;28;20491;-54
2021/01/18 03:25:17;;;;;;;9.10;5.23;;;10.30;64.10;;;;;;5075424;28;20484;-52
2021/01/18 03:27:50;;;;;;;8.50;5.93;;;10.30;63.90;;;;;;5075730;28;20474;-49
2021/01/18 03:30:19;;;;;;;8.63;5.50;;;10.30;63.90;;;;;;5075627;28;20445;-51
2021/01/18 03:32:49;;;;;;;10.17;5.87;;;10.30;64.00;;;;;;5074856;28;20437;-49
2021/01/18 03:35:16;;;;;;;10.20;6.50;;;10.30;64.00;;;;;;5075040;28;20458;-48
2021/01/18 03:37:43;;;;;;;9.60;6.20;;;10.30;64.00;;;;;;5075581;28;20457;-51
2021/01/18 03:40:11;;;;;;;16.17;6.50;;;10.30;64.10;;;;;;5075888;28;20453;-49
2021/01/18 03:42:38;;;;;;;6.27;5.67;;;10.20;64.10;;;;;;5075452;28;20480;-54
2021/01/18 03:45:06;;;;;;;9.97;6.27;;;10.30;64.00;;;;;;5074921;28;20442;-49
2021/01/18 03:47:33;;;;;;;7.60;5.70;;;10.40;64.00;;;;;;5075218;28;20470;-51
2021/01/18 03:50:00;;;;;;;11.50;6.60;;;10.40;63.90;;;;;;5075330;28;20434;-51
2021/01/18 03:52:26;;;;;;;8.83;5.80;;;10.40;64.00;;;;;;5075085;28;20552;-51
2021/01/18 03:54:53;;;;;;;10.00;6.00;;;10.30;63.90;;;;;;5074342;28;20446;-51
2021/01/18 03:57:20;;;;;;;10.50;5.70;;;10.40;63.90;;;;;;5075333;28;20446;-55
2021/01/18 03:59:47;;;;;;;9.77;5.50;;;10.30;64.10;;;;;;5075205;28;20469;-49
2021/01/18 04:02:14;;;;;;;9.27;5.27;;;10.30;64.20;;;;;;5075638;28;20462;-51
2021/01/18 04:04:41;;;;;;;13.77;5.93;;;10.30;64.10;;;;;;5074310;28;20453;-51
2021/01/18 04:07:10;;;;;;;13.53;5.90;;;10.40;64.00;;;;;;5074538;28;20489;-54
2021/01/18 04:09:36;;;;;;;9.93;5.70;;;10.30;64.20;;;;;;5074889;28;20509;-53
2021/01/18 04:12:04;;;;;;;9.23;5.30;;;10.30;64.10;;;;;;5075128;28;20449;-54
2021/01/18 04:14:31;;;;;;;9.70;6.07;;;10.30;64.10;;;;;;5074254;28;20472;-54
2021/01/18 04:16:59;;;;;;;9.23;5.60;;;10.30;64.20;;;;;;5074101;28;20532;-56
2021/01/18 04:19:26;;;;;;;6.30;4.87;;;10.30;64.10;;;;;;5074581;28;20434;-51
2021/01/18 04:21:52;;;;;;;7.40;5.27;;;10.40;64.20;;;;;;5074999;28;20501;-53
2021/01/18 04:24:19;;;;;;;7.40;5.13;;;10.40;64.20;;;;;;5072690;28;20545;-56
2021/01/18 04:26:46;;;;;;;8.77;4.80;;;10.40;64.10;;;;;;5074491;28;20529;-55
2021/01/18 04:29:13;;;;;;;8.47;4.97;;;10.40;64.00;;;;;;5080731;28;20516;-55
2021/01/18 04:31:40;;;;;;;11.63;6.27;;;10.40;64.10;;;;;;5094725;28;20433;-56
2021/01/18 04:34:08;;;;;;;6.80;4.80;;;10.40;63.90;;;;;;5094003;28;20441;-56
2021/01/18 04:36:37;;;;;;;8.50;5.17;;;10.30;64.20;;;;;;5094729;28;20441;-56
2021/01/18 04:39:06;;;;;;;8.20;5.27;;;10.40;64.20;;;;;;5079967;28;20453;-54
2021/01/18 04:41:32;;;;;;;8.10;5.17;;;10.40;64.20;;;;;;5073386;28;20509;-54
2021/01/18 04:43:59;;;;;;;8.27;4.83;;;10.30;64.10;;;;;;5091706;28;20539;-53
2021/01/18 04:46:27;;;;;;;9.87;5.53;;;10.30;64.20;;;;;;5090011;28;20464;-53
2021/01/18 04:48:54;;;;;;;6.70;4.90;;;10.30;64.30;;;;;;5093758;28;20437;-55
2021/01/18 04:51:22;;;;;;;6.73;4.80;;;10.40;64.20;;;;;;5094664;28;20444;-54
2021/01/18 04:53:50;;;;;;;5.73;4.20;;;10.30;64.10;;;;;;5094129;28;20508;-54
2021/01/18 04:56:32;;;;;;;6.50;4.57;;;10.30;64.20;;;;;;5104799;28;20438;-54
2021/01/18 04:59:00;;;;;;;7.60;4.27;;;10.40;64.10;;;;;;5114954;28;20436;-56
2021/01/18 05:01:29;;;;;;;8.33;4.87;;;10.30;64.20;;;;;;5114316;28;20455;-56
2021/01/18 05:04:02;;;;;;;7.63;5.13;;;10.30;64.10;;;;;;5114027;28;20458;-55
2021/01/18 05:06:46;;;;;;;6.50;4.60;;;10.30;64.10;;;;;;5113992;28;20513;-53
2021/01/18 05:09:34;;;;;;;7.27;4.67;;;10.40;64.20;;;;;;5114355;28;20481;-55
2021/01/18 05:12:01;;;;;;;6.80;4.17;;;10.30;64.00;;;;;;5114405;28;20436;-56
2021/01/18 05:14:27;;;;;;;7.00;4.63;;;10.30;64.20;;;;;;5083853;28;20528;-54
2021/01/18 05:16:56;;;;;;;8.53;4.87;;;10.30;64.10;;;;;;5073519;28;20524;-55
2021/01/18 05:19:24;;;;;;;7.70;4.80;;;10.30;64.10;;;;;;5073986;28;20426;-55
2021/01/18 05:21:52;;;;;;;7.43;4.60;;;10.30;64.40;;;;;;5073704;28;20550;-55
2021/01/18 05:24:19;;;;;;;8.80;4.57;;;10.30;64.30;;;;;;5073013;28;20471;-55
2021/01/18 05:27:03;;;;;;;6.27;4.37;;;10.40;64.30;;;;;;5073637;28;20474;-56
2021/01/18 05:29:34;;;;;;;8.87;4.73;;;10.30;64.30;;;;;;5072681;28;20621;-56
2021/01/18 05:32:00;;;;;;;6.40;4.20;;;10.30;64.20;;;;;;5100992;28;20432;-55
2021/01/18 05:34:28;;;;;;;9.00;5.30;;;10.30;64.40;;;;;;5113649;28;20432;-54
2021/01/18 05:36:56;;;;;;;5.40;4.40;;;10.30;64.30;;;;;;5113800;28;20475;-54
2021/01/18 05:39:24;;;;;;;7.20;4.20;;;10.30;64.40;;;;;;5111478;28;20432;-55
2021/01/18 05:41:51;;;;;;;6.17;4.50;;;10.30;64.50;;;;;;5073358;28;20552;-54
2021/01/18 05:44:18;;;;;;;5.30;4.20;;;10.20;64.40;;;;;;5073098;28;20552;-55
2021/01/18 05:46:50;;;;;;;7.70;4.43;;;10.30;64.30;;;;;;5073075;28;20491;-55
2021/01/18 05:49:18;;;;;;;5.07;3.93;;;10.20;64.40;;;;;;5093291;28;20444;-56
2021/01/18 05:51:48;;;;;;;5.53;4.17;;;10.30;64.40;;;;;;5114150;28;20460;-55
2021/01/18 05:54:20;;;;;;;9.60;4.17;;;10.30;64.20;;;;;;5113090;28;20479;-56
2021/01/18 05:56:48;;;;;;;6.87;4.40;;;10.30;64.30;;;;;;5113901;28;20431;-56
2021/01/18 05:59:18;;;;;;;7.80;4.07;;;10.30;64.20;;;;;;5074430;28;20473;-54
2021/01/18 06:01:46;;;;;;;6.23;4.20;;;10.30;64.40;;;;;;5072720;28;20480;-53
2021/01/18 06:04:13;;;;;;;6.40;4.13;;;10.30;64.20;;;;;;5072717;28;20438;-52
2021/01/18 06:06:41;;;;;;;8.67;3.93;;;10.40;64.30;;;;;;5088458;28;20432;-53
2021/01/18 06:09:08;;;;;;;10.00;4.47;;;10.40;64.20;;;;;;5114059;28;20461;-53
2021/01/18 06:11:36;;;;;;;7.23;3.90;;;10.40;64.20;;;;;;5113608;28;20475;-56
2021/01/18 06:14:03;;;;;;;5.83;4.03;;;10.40;64.00;;;;;;5113346;28;20518;-54
2021/01/18 06:16:31;;;;;;;6.13;3.80;;;10.40;64.10;;;;;;5081343;28;20512;-56
2021/01/18 06:19:02;;;;;;;6.63;3.97;;;10.30;64.30;;;;;;5073590;28;20438;-56
2021/01/18 06:21:39;;;;;;;4.67;3.70;;;10.30;64.30;;;;;;5073209;28;20476;-55
2021/01/18 06:24:26;;;;;;;6.30;4.00;;;10.30;64.20;;;;;;5072499;28;20481;-54
2021/01/18 06:26:53;;;;;;;5.60;3.77;;;10.30;64.20;;;;;;5072737;28;20533;-54
2021/01/18 06:29:37;;;;;;;7.93;4.37;;;10.30;64.20;;;;;;5072744;28;20442;-50
2021/01/18 06:32:07;;;;;;;7.07;3.67;;;10.30;64.10;;;;;;5072779;28;20563;-56
2021/01/18 06:34:35;;;;;;;6.57;3.87;;;10.40;64.30;;;;;;5072566;28;20522;-56
2021/01/18 06:37:01;;;;;;;6.23;3.80;;;10.40;64.10;;;;;;5072764;28;20442;-56
2021/01/18 06:39:30;;;;;;;6.10;3.67;;;10.30;64.10;;;;;;5073688;28;20491;-55
2021/01/18 06:41:59;;;;;;;5.43;3.87;;;10.30;64.10;;;;;;5076580;28;20556;-53
2021/01/18 06:44:36;;;;;;;6.73;4.00;;;10.30;64.10;;;;;;5075664;28;20488;-55
2021/01/18 06:47:24;;;;;;;3.40;3.10;;;10.30;64.30;;;;;;5076482;28;20479;-56
2021/01/18 06:49:52;;;;;;;10.60;3.80;;;10.40;64.20;;;;;;5076214;28;20433;-56
2021/01/18 06:52:24;;;;;;;7.17;4.00;;;10.30;64.10;;;;;;5076461;28;20449;-56
2021/01/18 06:54:52;;;;;;;6.67;3.83;;;10.30;64.20;;;;;;5075954;28;20437;-54
2021/01/18 06:57:23;;;;;;;6.83;3.63;;;10.30;64.10;;;;;;5076067;28;20509;-56
2021/01/18 06:59:52;;;;;;;7.63;3.80;;;10.30;64.00;;;;;;5084122;28;20443;-53
2021/01/18 07:02:24;;;;;;;8.13;4.27;;;10.40;64.00;;;;;;5096839;28;20473;-54
2021/01/18 07:04:51;;;;;;;5.67;3.47;;;10.40;64.10;;;;;;5096131;28;20444;-52
2021/01/18 07:07:24;;;;;;;5.43;3.60;;;10.30;64.10;;;;;;5095892;28;20461;-55
2021/01/18 07:09:56;;;;;;;7.63;3.50;;;10.30;64.30;;;;;;5078242;28;20536;-56
2021/01/18 07:12:24;;;;;;;5.10;3.50;;;10.30;64.50;;;;;;5074486;28;20445;-56
2021/01/18 07:14:58;;;;;;;5.07;3.70;;;10.30;64.50;;;;;;5075111;28;20528;-53
2021/01/18 07:17:51;;;;;;;6.97;3.60;;;10.30;64.20;;;;;;5089816;28;20480;-54
2021/01/18 07:20:23;;;;;;;12.43;4.37;;;10.40;64.20;;;;;;5116689;28;20527;-55
2021/01/18 07:23:28;;;;;;;8.30;3.40;;;10.30;64.20;;;;;;5116626;28;20519;-55
2021/01/18 07:26:22;;;;;;;7.03;3.67;;;10.30;64.40;;;;;;5107546;27;20457;-54
2021/01/18 07:28:54;;;;;;;5.30;3.43;;;10.20;64.60;;;;;;5075713;28;20528;-55
2021/01/18 07:31:24;;;;;;;3.50;3.20;;;10.30;64.50;;;;;;5086841;28;20607;-56
2021/01/18 07:33:51;;;;;;;4.40;3.10;;;10.30;64.40;;;;;;5095427;28;20444;-54
2021/01/18 07:36:25;;;;;;;5.47;3.40;;;10.30;64.50;;;;;;5091802;28;20463;-55
2021/01/18 07:38:52;;;;;;;9.07;3.77;;;10.40;64.30;;;;;;5095837;28;20535;-53
2021/01/18 07:41:20;;;;;;;7.53;3.53;;;10.40;64.30;;;;;;5095774;28;20490;-52
2021/01/18 07:43:48;;;;;;;5.03;3.30;;;10.40;64.20;;;;;;5100355;28;20474;-55
2021/01/18 07:46:39;;;;;;;7.10;3.90;;;10.40;64.20;;;;;;5115922;28;20434;-55
2021/01/18 07:49:31;;;;;;;5.33;3.10;;;10.40;64.20;;;;;;5115975;28;20435;-56
2021/01/18 07:52:25;;;;;;;5.27;3.80;;;10.40;64.20;;;;;;5114568;28;20483;-55
2021/01/18 07:54:52;;;;;;;4.97;3.33;;;10.40;64.20;;;;;;5094869;28;20508;-54
2021/01/18 07:57:27;;;;;;;6.63;3.40;;;10.40;64.40;;;;;;5095321;28;20453;-53
2021/01/18 08:00:27;;;;;;;4.97;3.60;;;10.40;64.30;;;;;;5095363;28;20460;-56
2021/01/18 08:02:56;;;;;;;5.97;3.63;;;10.40;64.20;;;;;;5112075;28;20536;-56
2021/01/18 08:05:25;;;;;;;12.20;3.87;;;10.40;64.20;;;;;;5115117;28;20543;-55
2021/01/18 08:08:05;;;;;;;8.00;4.27;;;10.40;64.10;;;;;;5115362;28;20483;-56
2021/01/18 08:10:51;;;;;;;7.50;3.27;;;10.40;64.20;;;;;;5101562;27;20434;-54
2021/01/18 08:13:45;;;;;;;11.40;4.10;;;10.50;63.90;;;;;;5075121;28;20418;-56
2021/01/18 08:16:19;;;;;;;8.90;3.53;;;10.50;64.10;;;;;;5074729;28;20445;-56
2021/01/18 08:18:55;;;;;;;7.90;3.67;;;10.50;64.10;;;;;;5074639;28;20441;-56
2021/01/18 08:21:58;;;;;;;4.70;3.50;;;10.50;63.90;;;;;;5074475;28;20522;-55
2021/01/18 08:24:58;;;;;;;9.43;3.90;;;10.50;63.90;;;;;;5073908;28;20433;-56
2021/01/18 08:27:38;;;;;;;9.90;3.70;;;10.50;63.90;;;;;;5012360;28;20476;-55
2021/01/18 08:30:30;;;;;;;5.80;2.93;;;10.60;63.80;;;;;;5012897;28;20467;-54
2021/01/18 08:32:58;;;;;;;5.93;3.50;;;10.50;64.10;;;;;;5053773;28;20485;-56
2021/01/18 08:35:29;;;;;;;8.00;3.93;;;10.50;64.20;;;;;;5073869;28;20426;-55
2021/01/18 08:38:22;;;;;;;6.50;3.60;;;10.50;64.10;;;;;;5073813;28;20441;-53
2021/01/18 08:40:49;;;;;;;10.20;3.97;;;10.60;64.20;;;;;;5073854;28;20467;-56
2021/01/18 08:43:16;;;;;;;6.67;3.80;;;10.60;64.20;;;;;;5073008;28;20558;-54
2021/01/18 08:45:45;;;;;;;7.80;4.33;;;10.60;64.20;;;;;;5074134;28;20461;-54
2021/01/18 08:48:12;;;;;;;4.73;4.07;;;10.60;64.10;;;;;;5073993;28;20509;-54
2021/01/18 08:50:45;;;;;;;6.47;3.70;;;10.60;64.30;;;;;;5073973;28;20467;-50
2021/01/18 08:53:32;;;;;;;7.13;3.90;;;10.60;64.20;;;;;;5073910;28;20499;-56
2021/01/18 08:56:03;;;;;;;7.80;3.97;;;10.60;64.10;;;;;;5076709;28;20464;-55
2021/01/18 08:58:40;;;;;;;7.53;3.40;;;10.60;64.10;;;;;;5087778;28;20432;-55
2021/01/18 09:01:17;;;;;;;8.93;3.90;;;10.60;64.30;;;;;;5093938;28;20452;-54
2021/01/18 09:03:44;;;;;;;3.90;3.57;;;10.60;64.20;;;;;;5085963;28;20509;-56
2021/01/18 09:06:12;;;;;;;9.43;4.30;;;10.60;64.20;;;;;;5073390;28;20532;-47
2021/01/18 09:08:40;;;;;;;9.13;3.80;;;10.80;64.00;;;;;;5073553;28;20450;-49
2021/01/18 09:11:08;;;;;;;5.43;3.43;;;10.70;64.00;;;;;;5073460;28;20506;-52
2021/01/18 09:13:37;;;;;;;10.03;4.20;;;10.80;64.10;;;;;;5074241;28;20449;-52
2021/01/18 09:16:05;;;;;;;8.03;3.67;;;10.80;63.90;;;;;;5072980;28;20450;-51
2021/01/18 09:18:33;;;;;;;6.03;3.13;;;10.90;63.90;;;;;;5073529;28;20441;-51
2021/01/18 09:21:00;;;;;;;5.90;3.83;;;10.80;63.90;;;;;;5074462;28;20469;-52
2021/01/18 09:23:28;;;;;;;7.00;3.50;;;10.80;63.90;;;;;;5073514;28;20485;-49
2021/01/18 09:26:04;;;;;;;6.93;3.60;;;10.80;63.90;;;;;;5073266;28;20480;-52
2021/01/18 09:28:31;;;;;;;11.33;3.90;;;10.90;64.00;;;;;;5073760;28;20449;-49
2021/01/18 09:31:06;;;;;;;10.53;3.70;;;10.90;63.90;;;;;;5073670;28;20536;-51
2021/01/18 09:33:34;;;;;;;6.60;3.63;;;10.80;64.10;;;;;;5073547;28;20418;-50
2021/01/18 09:36:01;;;;;;;8.30;3.40;;;10.80;64.30;;;;;;5073251;28;20536;-48
2021/01/18 09:38:29;;;;;;;5.63;3.73;;;10.80;64.30;;;;;;5073586;28;20433;-49
2021/01/18 09:40:56;;;;;;;5.17;3.23;;;10.90;64.20;;;;;;5073510;28;20434;-51
2021/01/18 09:43:23;;;;;;;4.70;3.50;;;10.90;64.00;;;;;;5073613;28;20545;-51
2021/01/18 09:45:53;;;;;;;7.40;3.73;;;11.00;63.90;;;;;;5072592;28;20473;-51
2021/01/18 09:48:22;;;;;;;6.20;3.33;;;10.90;64.20;;;;;;5073555;28;20433;-49
2021/01/18 09:50:50;;;;;;;5.50;3.80;;;10.90;64.20;;;;;;5073180;28;20434;-48
2021/01/18 09:53:17;;;;;;;8.47;4.20;;;11.00;64.70;;;;;;5073495;28;20438;-51
2021/01/18 09:55:48;;;;;;;7.03;3.73;;;11.00;64.10;;;;;;5072754;28;20503;-49
2021/01/18 09:58:17;;;;;;;5.67;3.73;;;11.00;64.30;;;;;;5073313;28;20453;-53
2021/01/18 10:00:46;;;;;;;10.03;4.33;;;10.90;64.20;;;;;;5073676;28;20429;-49
2021/01/18 10:03:24;;;;;;;7.10;3.40;;;11.00;64.30;;;;;;5092649;28;20475;-52
2021/01/18 10:05:51;;;;;;;7.77;4.10;;;11.00;64.10;;;;;;5083835;28;20510;-49
2021/01/18 10:08:21;;;;;;;9.40;3.73;;;11.10;64.10;;;;;;5073105;28;20528;-54
2021/01/18 10:10:49;;;;;;;12.20;4.00;;;11.10;64.10;;;;;;5073334;28;20469;-52
2021/01/18 10:13:17;;;;;;;5.80;3.27;;;11.10;64.00;;;;;;5073120;28;20521;-53
2021/01/18 10:15:44;;;;;;;8.60;3.20;;;11.10;64.00;;;;;;5075670;28;20461;-52
2021/01/18 10:18:31;;;;;;;8.77;3.77;;;11.10;64.00;;;;;;5076750;28;20501;-53
2021/01/18 10:20:59;;;;;;;5.50;3.37;;;11.10;64.00;;;;;;5076892;28;20441;-52
2021/01/18 10:23:30;;;;;;;5.37;3.37;;;11.10;64.10;;;;;;5093346;28;20479;-50
2021/01/18 10:26:19;;;;;;;5.77;3.27;;;11.10;64.30;;;;;;5116773;28;20451;-50
2021/01/18 10:28:54;;;;;;;11.80;3.70;;;11.20;64.30;;;;;;5117510;28;20431;-52
2021/01/18 10:31:22;;;;;;;4.67;3.30;;;11.20;64.20;;;;;;5116507;28;20481;-50
2021/01/18 10:34:12;;;;;;;5.47;3.10;;;11.20;64.30;;;;;;5117148;28;20424;-52
2021/01/18 10:36:40;;;;;;;5.50;3.10;;;11.20;64.10;;;;;;5117035;28;20450;-52
2021/01/18 10:39:07;;;;;;;7.00;4.00;;;11.30;64.00;;;;;;5117317;28;20432;-50
2021/01/18 10:41:35;;;;;;;4.10;3.20;;;11.20;64.10;;;;;;5093266;28;20441;-49
2021/01/18 10:44:13;;;;;;;5.30;3.40;;;11.30;64.20;;;;;;5075996;28;20508;-52
2021/01/18 10:46:40;;;;;;;9.80;3.93;;;11.20;64.20;;;;;;5076480;28;20528;-52
2021/01/18 10:49:08;;;;;;;5.00;3.70;;;11.30;64.30;;;;;;5076349;28;20441;-51
2021/01/18 10:51:35;;;;;;;7.33;4.30;;;11.30;64.20;;;;;;5076322;28;20521;-48
2021/01/18 10:54:02;;;;;;;5.73;3.43;;;11.30;64.40;;;;;;5086842;28;20481;-49
2021/01/18 10:56:47;;;;;;;8.93;3.60;;;11.40;64.10;;;;;;5076381;28;20516;-53
2021/01/18 10:59:14;;;;;;;5.93;3.60;;;11.40;64.00;;;;;;5099653;28;20444;-54
2021/01/18 11:01:56;;;;;;;10.23;4.03;;;11.40;64.10;;;;;;5094446;28;20452;-52
2021/01/18 11:04:23;;;;;;;5.30;3.50;;;11.40;64.00;;;;;;5075560;28;20473;-50
2021/01/18 11:06:50;;;;;;;7.93;3.70;;;11.50;64.20;;;;;;5078144;28;20434;-49
2021/01/18 11:09:27;;;;;;;9.87;4.67;;;11.40;64.10;;;;;;5116884;28;20480;-49
2021/01/18 11:11:56;;;;;;;8.17;3.63;;;11.40;64.30;;;;;;5116786;28;20446;-53
2021/01/18 11:14:24;;;;;;;7.10;3.73;;;11.40;64.30;;;;;;5115885;28;20446;-52
2021/01/18 11:17:00;;;;;;;7.33;4.20;;;11.40;64.50;;;;;;5116340;28;20531;-51
2021/01/18 11:19:27;;;;;;;5.50;3.30;;;11.40;64.80;;;;;;5075587;28;20429;-52
2021/01/18 11:21:54;;;;;;;7.60;4.00;;;11.50;64.60;;;;;;5075191;28;20442;-52
2021/01/18 11:24:21;;;;;;;12.07;4.70;;;11.50;64.60;;;;;;5074931;28;20540;-50
2021/01/18 11:26:48;;;;;;;7.13;3.70;;;11.50;64.90;;;;;;5095382;28;20461;-54
2021/01/18 11:29:16;;;;;;;9.80;4.27;;;11.50;64.60;;;;;;5086599;28;20469;-48
2021/01/18 11:31:43;;;;;;;7.07;3.90;;;11.50;64.90;;;;;;5086544;28;20564;-52
2021/01/18 11:34:10;;;;;;;5.53;3.37;;;11.50;65.00;;;;;;5088062;28;20469;-54
2021/01/18 11:36:38;;;;;;;7.53;4.07;;;11.60;64.80;;;;;;5087868;28;20442;-51
2021/01/18 11:39:05;;;;;;;7.90;3.43;;;11.60;64.80;;;;;;5088197;28;20487;-50
2021/01/18 11:41:33;;;;;;;10.13;4.40;;;11.60;64.80;;;;;;5090878;28;20505;-51
2021/01/18 11:44:00;;;;;;;8.37;4.30;;;11.50;65.00;;;;;;5079779;28;20569;-50
2021/01/18 11:46:28;;;;;;;6.80;4.27;;;11.60;65.10;;;;;;5075485;28;20520;-54
2021/01/18 11:48:55;;;;;;;11.10;4.10;;;11.60;65.20;;;;;;5089640;28;20437;-50
2021/01/18 11:51:22;;;;;;;17.30;4.63;;;11.60;65.00;;;;;;5099027;28;20489;-52
2021/01/18 11:53:49;;;;;;;8.60;4.20;;;11.70;65.00;;;;;;5116113;28;20471;-49
2021/01/18 11:56:16;;;;;;;8.57;4.30;;;11.70;65.20;;;;;;5116004;28;20535;-51
2021/01/18 11:58:42;;;;;;;6.73;3.60;;;11.70;65.10;;;;;;5116046;28;20495;-49
2021/01/18 12:01:10;;;;;;;4.73;3.80;;;11.80;64.80;;;;;;5104011;28;20567;-50
2021/01/18 12:03:38;;;;;;;4.47;3.50;;;11.70;65.10;;;;;;5086830;28;20517;-52
2021/01/18 12:06:05;;;;;;;5.33;3.60;;;11.70;65.30;;;;;;5079743;28;20517;-51
2021/01/18 12:08:32;;;;;;;13.40;4.47;;;11.70;65.30;;;;;;5083703;28;20433;-51
2021/01/18 12:10:59;;;;;;;9.97;3.83;;;11.70;65.50;;;;;;5088071;28;20488;-50
2021/01/18 12:13:26;;;;;;;7.17;4.00;;;11.70;65.40;;;;;;5085926;28;20482;-56
2021/01/18 12:15:53;;;;;;;10.17;4.60;;;11.70;65.30;;;;;;5084866;28;20434;-51
2021/01/18 12:18:21;;;;;;;6.17;3.60;;;11.70;65.50;;;;;;5088059;28;20441;-54
2021/01/18 12:20:48;;;;;;;7.90;3.97;;;11.70;65.50;;;;;;5084229;28;20430;-54
2021/01/18 12:23:18;;;;;;;10.20;4.10;;;11.70;65.50;;;;;;5084371;28;20500;-54
2021/01/18 12:25:45;;;;;;;9.00;4.17;;;11.60;65.60;;;;;;5084174;28;20484;-54
2021/01/18 12:28:12;;;;;;;9.07;3.77;;;11.60;65.80;;;;;;5082920;28;20494;-51
2021/01/18 12:30:39;;;;;;;5.53;3.93;;;11.60;65.80;;;;;;5083457;28;20430;-53
2021/01/18 12:33:06;;;;;;;7.40;4.13;;;11.60;65.70;;;;;;5080077;28;20481;-55
2021/01/18 12:35:50;;;;;;;8.60;3.90;;;11.60;65.90;;;;;;5085752;28;20459;-55
2021/01/18 12:38:16;;;;;;;7.70;3.60;;;11.60;66.10;;;;;;5082547;28;20468;-57
2021/01/18 12:40:43;;;;;;;9.97;4.33;;;11.60;66.00;;;;;;5081370;28;20462;-54
2021/01/18 12:43:10;;;;;;;8.80;4.50;;;11.60;66.00;;;;;;5079700;28;20520;-54
2021/01/18 12:45:37;;;;;;;7.17;4.40;;;11.70;66.00;;;;;;5086595;28;20440;-55
2021/01/18 12:48:05;;;;;;;8.63;4.30;;;11.70;66.00;;;;;;5083637;28;20449;-57
2021/01/18 12:50:32;;;;;;;6.80;4.10;;;11.70;65.80;;;;;;5086061;28;20430;-56
2021/01/18 12:53:00;;;;;;;8.47;4.07;;;11.70;66.00;;;;;;5084482;28;20442;-55
2021/01/18 12:55:26;;;;;;;9.87;4.53;;;11.70;66.10;;;;;;5084229;28;20437;-57
2021/01/18 12:57:53;;;;;;;13.73;3.93;;;11.60;66.20;;;;;;5084486;28;20528;-56
2021/01/18 13:00:21;;;;;;;9.87;4.10;;;11.60;66.40;;;;;;5082797;28;20438;-55